createdAt,value
2023-04-12T00:02:04.634Z,3.74
2023-04-12T00:05:09.724Z,3.61
2023-04-12T00:08:14.253Z,3.61
2023-04-12T00:11:21.492Z,3.67
2023-04-12T00:14:25.055Z,3.76
2023-04-12T00:17:27.903Z,3.64
2023-04-12T00:20:30.526Z,3.48
2023-04-12T00:23:33.815Z,3.51
2023-04-12T00:26:36.340Z,3.48
2023-04-12T00:29:39.091Z,3.57
2023-04-12T00:32:41.804Z,3.59
2023-04-12T00:35:44.640Z,3.74
2023-04-12T00:38:47.631Z,3.70
2023-04-12T00:41:50.837Z,3.60
2023-04-12T00:44:53.349Z,3.81
2023-04-12T00:47:56.498Z,3.42
2023-04-12T00:51:00.984Z,3.32
2023-04-12T00:54:04.121Z,3.28
2023-04-12T00:57:06.649Z,3.31
2023-04-12T01:00:13.537Z,3.32
2023-04-12T01:03:23.174Z,3.37
2023-04-12T01:06:47.588Z,3.30
2023-04-12T01:10:08.483Z,3.31
2023-04-12T01:13:30.703Z,3.33
2023-04-12T01:16:51.471Z,3.34
2023-04-12T01:20:19.714Z,3.14
2023-04-12T01:23:44.817Z,3.27
2023-04-12T01:26:48.567Z,3.20
2023-04-12T01:29:51.678Z,3.23
2023-04-12T01:32:56.193Z,3.12
2023-04-12T01:36:00.992Z,2.95
2023-04-12T01:39:05.075Z,2.88
2023-04-12T01:42:07.637Z,2.87
2023-04-12T01:45:10.838Z,2.74
2023-04-12T01:48:13.522Z,2.76
2023-04-12T01:51:28.418Z,2.69
2023-04-12T01:54:35.262Z,2.70
2023-04-12T01:57:40.419Z,2.54
2023-04-12T02:00:44.440Z,2.49
2023-04-12T02:03:49.808Z,2.79
2023-04-12T02:06:52.642Z,3.13
2023-04-12T02:09:55.517Z,3.37
2023-04-12T02:13:00.644Z,3.58
2023-04-12T02:16:03.458Z,3.61
2023-04-12T02:19:10.807Z,3.60
2023-04-12T02:22:13.305Z,3.55
2023-04-12T02:25:18.146Z,3.55
2023-04-12T02:28:23.122Z,3.29
2023-04-12T02:31:25.953Z,3.19
2023-04-12T02:34:36.661Z,3.19
2023-04-12T02:37:41.275Z,2.93
2023-04-12T02:40:44.019Z,2.87
2023-04-12T02:43:47.712Z,2.71
2023-04-12T02:46:50.988Z,2.61
2023-04-12T02:49:54.129Z,2.46
2023-04-12T02:52:57.817Z,2.47
2023-04-12T02:56:01.296Z,2.55
2023-04-12T02:59:04.578Z,2.53
2023-04-12T03:02:08.112Z,2.55
2023-04-12T03:05:10.937Z,2.57
2023-04-12T03:08:14.382Z,2.49
2023-04-12T03:11:18.090Z,2.31
2023-04-12T03:14:21.556Z,2.22
2023-04-12T03:17:24.414Z,2.11
2023-04-12T03:20:28.481Z,2.03
2023-04-12T03:23:32.628Z,1.90
2023-04-12T03:26:36.155Z,1.85
2023-04-12T03:29:38.946Z,1.74
2023-04-12T03:32:42.625Z,1.70
2023-04-12T03:35:45.444Z,1.71
2023-04-12T03:38:48.872Z,1.69
2023-04-12T03:41:53.232Z,1.83
2023-04-12T03:44:57.202Z,1.92
2023-04-12T03:47:59.714Z,1.84
2023-04-12T03:51:07.849Z,1.73
2023-04-12T03:54:15.340Z,1.63
2023-04-12T03:57:18.934Z,1.82
2023-04-12T04:00:21.841Z,2.03
2023-04-12T04:03:35.298Z,1.99
2023-04-12T04:06:38.764Z,2.05
2023-04-12T04:09:41.611Z,2.13
2023-04-12T04:12:44.847Z,2.12
2023-04-12T04:15:51.672Z,2.15
2023-04-12T04:18:54.109Z,1.92
2023-04-12T04:21:57.136Z,1.78
2023-04-12T04:25:01.201Z,1.77
2023-04-12T04:28:08.669Z,1.77
2023-04-12T04:31:12.504Z,1.84
2023-04-12T04:34:16.727Z,1.89
2023-04-12T04:37:19.831Z,1.82
2023-04-12T04:40:23.236Z,2.00
2023-04-12T04:43:26.398Z,2.35
2023-04-12T04:46:30.567Z,2.69
2023-04-12T04:49:33.880Z,2.84
2023-04-12T04:52:39.421Z,3.03
2023-04-12T04:55:42.515Z,3.07
2023-04-12T04:58:46.070Z,3.47
2023-04-12T05:01:48.826Z,3.68
2023-04-12T05:04:52.520Z,4.01
2023-04-12T05:07:56.676Z,4.24
2023-04-12T05:10:59.960Z,4.53
2023-04-12T05:14:03.804Z,4.55
2023-04-12T05:17:06.972Z,4.72
2023-04-12T05:20:10.976Z,4.63
2023-04-12T05:23:16.246Z,5.03
2023-04-12T05:26:18.722Z,5.69
2023-04-12T05:29:22.234Z,7.14
2023-04-12T05:32:25.677Z,7.22
2023-04-12T05:35:28.920Z,7.16
2023-04-12T05:38:33.222Z,8.40
2023-04-12T05:41:36.683Z,8.45
2023-04-12T05:44:39.840Z,7.58
2023-04-12T05:47:43.348Z,8.02
2023-04-12T05:50:53.356Z,7.46
2023-04-12T05:53:56.898Z,7.49
2023-04-12T05:57:00.895Z,7.77
2023-04-12T06:00:07.737Z,8.29
2023-04-12T06:03:15.714Z,7.79
2023-04-12T06:06:18.956Z,7.44
2023-04-12T06:09:22.999Z,7.50
2023-04-12T06:12:27.073Z,7.68
2023-04-12T06:15:32.229Z,7.26
2023-04-12T06:18:35.721Z,6.90
2023-04-12T06:21:38.291Z,7.62
2023-04-12T06:24:41.818Z,7.78
2023-04-12T06:27:44.882Z,7.46
2023-04-12T06:30:48.399Z,7.40
2023-04-12T06:33:51.482Z,7.84
2023-04-12T06:36:54.520Z,8.04
2023-04-12T06:39:56.974Z,7.95
2023-04-12T06:42:59.855Z,8.40
2023-04-12T06:46:05.178Z,8.75
2023-04-12T06:49:08.312Z,9.17
2023-04-12T06:52:11.122Z,9.73
2023-04-12T06:55:14.490Z,10.03
2023-04-12T06:58:17.208Z,10.52
2023-04-12T07:01:20.190Z,9.77
2023-04-12T07:04:23.139Z,10.35
2023-04-12T07:07:26.741Z,10.37
2023-04-12T07:10:29.942Z,11.02
2023-04-12T07:13:32.758Z,11.49
2023-04-12T07:16:35.627Z,12.56
2023-04-12T07:19:39.517Z,13.59
2023-04-12T07:22:42.255Z,14.23
2023-04-12T07:25:45.508Z,14.10
2023-04-12T07:28:48.627Z,14.88
2023-04-12T07:31:51.867Z,15.44
2023-04-12T07:34:54.559Z,13.88
2023-04-12T07:37:57.732Z,15.71
2023-04-12T07:41:00.505Z,15.87
2023-04-12T07:44:03.946Z,15.57
2023-04-12T07:47:07.326Z,16.27
2023-04-12T07:50:12.714Z,15.77
2023-04-12T07:53:20.114Z,15.48
2023-04-12T07:56:25.858Z,15.93
2023-04-12T07:59:28.888Z,15.46
2023-04-12T08:02:32.111Z,15.39
2023-04-12T08:05:35.644Z,15.37
2023-04-12T08:08:38.414Z,16.65
2023-04-12T08:11:41.505Z,17.53
2023-04-12T08:14:45.245Z,17.95
2023-04-12T08:17:48.386Z,18.41
2023-04-12T08:20:52.291Z,17.51
2023-04-12T08:23:55.652Z,17.94
2023-04-12T08:26:58.652Z,16.63
2023-04-12T08:30:01.534Z,16.96
2023-04-12T08:33:05.159Z,16.83
2023-04-12T08:36:08.456Z,17.96
2023-04-12T08:39:11.308Z,18.98
2023-04-12T08:42:15.626Z,18.47
2023-04-12T08:45:18.564Z,18.06
2023-04-12T08:48:22.744Z,17.59
2023-04-12T08:51:25.541Z,18.78
2023-04-12T08:54:29.115Z,19.32
2023-04-12T08:57:32.813Z,19.54
2023-04-12T09:00:37.389Z,19.92
2023-04-12T09:03:40.753Z,19.34
2023-04-12T09:06:43.813Z,20.20
2023-04-12T09:09:47.708Z,19.00
2023-04-12T09:12:52.322Z,21.41
2023-04-12T09:15:55.618Z,20.85
2023-04-12T09:19:02.451Z,20.99
2023-04-12T09:22:05.251Z,20.83
2023-04-12T09:25:08.242Z,20.94
2023-04-12T09:28:26.169Z,21.82
2023-04-12T09:31:29.374Z,20.12
2023-04-12T09:34:32.976Z,21.19
2023-04-12T09:37:36.068Z,21.83
2023-04-12T09:40:39.489Z,22.35
2023-04-12T09:43:42.790Z,21.48
2023-04-12T09:46:51.982Z,22.20
2023-04-12T09:49:55.016Z,22.06
2023-04-12T09:52:58.854Z,22.21
2023-04-12T09:56:06.495Z,21.57
2023-04-12T09:59:09.678Z,22.02
2023-04-12T10:02:21.642Z,22.20
2023-04-12T10:05:26.976Z,22.84
2023-04-12T10:08:31.840Z,24.62
2023-04-12T10:11:34.825Z,24.63
2023-04-12T10:14:38.415Z,25.69
2023-04-12T10:17:47.088Z,25.02
2023-04-12T10:20:50.013Z,24.16
2023-04-12T10:23:53.467Z,24.61
2023-04-12T10:26:58.590Z,22.15
2023-04-12T10:30:21.360Z,24.37
2023-04-12T10:33:28.550Z,24.89
2023-04-12T10:36:54.561Z,26.05
2023-04-12T10:39:57.245Z,26.29
2023-04-12T10:43:18.811Z,24.61
2023-04-12T10:46:40.639Z,22.38
2023-04-12T10:50:21.622Z,23.48
2023-04-12T10:53:25.327Z,25.99
2023-04-12T10:56:32.740Z,26.44
2023-04-12T10:59:56.074Z,27.49
2023-04-12T11:03:12.484Z,24.53
2023-04-12T11:06:27.056Z,25.55
2023-04-12T11:09:36.932Z,23.96
2023-04-12T11:12:39.531Z,22.63
2023-04-12T11:15:42.589Z,24.44
2023-04-12T11:18:47.439Z,22.19
2023-04-12T11:21:52.034Z,25.56
2023-04-12T11:24:57.585Z,26.03
2023-04-12T11:28:01.005Z,25.25
2023-04-12T11:31:04.025Z,25.77
2023-04-12T11:34:07.232Z,25.14
2023-04-12T11:37:10.572Z,24.31
2023-04-12T11:40:14.630Z,20.97
2023-04-12T11:43:20.186Z,19.78
2023-04-12T11:46:23.078Z,21.13
2023-04-12T11:49:27.574Z,19.65
2023-04-12T11:52:32.740Z,19.87
2023-04-12T11:55:35.178Z,19.41
2023-04-12T11:58:38.272Z,19.29
2023-04-12T12:01:41.339Z,18.13
2023-04-12T12:04:48.747Z,18.10
2023-04-12T12:07:52.790Z,19.68
2023-04-12T12:11:07.417Z,20.67
2023-04-12T12:14:11.249Z,20.94
2023-04-12T12:17:15.933Z,19.96
2023-04-12T12:20:21.767Z,18.82
2023-04-12T12:23:33.891Z,18.19
2023-04-12T12:26:36.416Z,17.99
2023-04-12T12:29:39.725Z,18.06
2023-04-12T12:32:42.389Z,18.20
2023-04-12T12:35:45.740Z,16.84
2023-04-12T12:38:49.311Z,16.98
2023-04-12T12:42:00.212Z,17.35
2023-04-12T12:45:04.537Z,16.89
2023-04-12T12:48:07.544Z,15.71
2023-04-12T12:51:11.924Z,16.64
2023-04-12T12:54:28.351Z,16.27
2023-04-12T12:57:39.110Z,15.64
2023-04-12T13:00:41.954Z,15.58
2023-04-12T13:03:44.738Z,16.05
2023-04-12T13:06:47.648Z,16.13
2023-04-12T13:09:50.260Z,16.20
2023-04-12T13:12:53.084Z,16.35
2023-04-12T13:15:56.037Z,16.07
2023-04-12T13:18:59.099Z,16.41
2023-04-12T13:22:01.734Z,16.17
2023-04-12T13:25:05.026Z,15.36
2023-04-12T13:28:07.523Z,15.95
2023-04-12T13:31:10.425Z,16.05
2023-04-12T13:34:13.050Z,15.11
2023-04-12T13:37:15.878Z,15.34
2023-04-12T13:40:18.504Z,15.23
2023-04-12T13:43:21.656Z,15.42
2023-04-12T13:46:24.410Z,15.17
2023-04-12T13:49:27.519Z,15.07
2023-04-12T13:52:30.326Z,14.87
2023-04-12T13:55:33.148Z,14.87
2023-04-12T13:58:36.211Z,14.84
2023-04-12T14:01:39.072Z,14.77
2023-04-12T14:04:52.826Z,14.87
2023-04-12T14:07:55.921Z,15.00
2023-04-12T14:10:59.605Z,15.10
2023-04-12T14:14:02.154Z,15.16
2023-04-12T14:17:05.063Z,15.19
2023-04-12T14:20:10.630Z,15.18
2023-04-12T14:23:13.728Z,14.98
2023-04-12T14:26:16.438Z,14.65
2023-04-12T14:29:19.221Z,14.70
2023-04-12T14:32:22.608Z,15.00
2023-04-12T14:35:25.500Z,15.12
2023-04-12T14:38:28.480Z,15.09
2023-04-12T14:41:32.054Z,14.96
2023-04-12T14:44:34.497Z,14.82
2023-04-12T14:47:37.363Z,14.75
2023-04-12T14:50:39.910Z,14.90
2023-04-12T14:53:43.292Z,15.07
2023-04-12T14:56:53.565Z,14.93
2023-04-12T14:59:58.564Z,15.13
2023-04-12T15:03:01.555Z,15.21
2023-04-12T15:06:04.926Z,15.29
2023-04-12T15:09:07.773Z,15.34
2023-04-12T15:12:10.703Z,15.31
2023-04-12T15:15:13.271Z,15.43
2023-04-12T15:18:16.111Z,15.20
2023-04-12T15:21:18.821Z,14.56
2023-04-12T15:24:22.497Z,14.79
2023-04-12T15:27:24.985Z,14.93
2023-04-12T15:30:27.775Z,14.74
2023-04-12T15:33:34.551Z,14.84
2023-04-12T15:36:38.000Z,14.69
2023-04-12T15:39:41.441Z,14.66
2023-04-12T15:42:44.337Z,14.64
2023-04-12T15:45:46.890Z,14.62
2023-04-12T15:48:49.639Z,14.58
2023-04-12T15:51:52.881Z,14.41
2023-04-12T15:54:55.635Z,14.25
2023-04-12T15:57:58.126Z,14.06
2023-04-12T16:01:00.967Z,14.06
2023-04-12T16:04:05.422Z,14.00
2023-04-12T16:07:09.126Z,13.97
2023-04-12T16:10:12.750Z,13.93
2023-04-12T16:13:15.969Z,13.91
2023-04-12T16:16:21.367Z,13.80
2023-04-12T16:19:24.123Z,13.89
2023-04-12T16:22:27.386Z,13.73
2023-04-12T16:25:30.010Z,13.68
2023-04-12T16:28:33.414Z,13.56
2023-04-12T16:31:36.504Z,13.53
2023-04-12T16:34:41.388Z,13.48
2023-04-12T16:37:44.893Z,13.45
2023-04-12T16:40:48.542Z,13.43
2023-04-12T16:43:53.823Z,13.39
2023-04-12T16:46:56.790Z,13.30
2023-04-12T16:50:09.664Z,13.27
2023-04-12T16:53:12.997Z,13.25
2023-04-12T16:56:16.964Z,13.21
2023-04-12T16:59:20.036Z,13.20
2023-04-12T17:02:22.885Z,13.20
2023-04-12T17:05:27.221Z,13.14
2023-04-12T17:08:30.219Z,13.13
2023-04-12T17:11:33.519Z,13.08
2023-04-12T17:14:37.121Z,13.02
2023-04-12T17:17:40.501Z,12.87
2023-04-12T17:20:43.345Z,12.84
2023-04-12T17:23:49.508Z,12.68
2023-04-12T17:26:53.314Z,12.62
2023-04-12T17:29:56.374Z,12.45
2023-04-12T17:33:01.372Z,12.38
2023-04-12T17:36:04.971Z,12.27
2023-04-12T17:39:07.741Z,12.18
2023-04-12T17:42:10.768Z,12.04
2023-04-12T17:45:14.724Z,12.00
2023-04-12T17:48:17.856Z,11.98
2023-04-12T17:51:20.683Z,11.93
2023-04-12T17:54:23.857Z,11.91
2023-04-12T17:57:27.630Z,11.92
2023-04-12T18:00:31.286Z,11.93
2023-04-12T18:03:34.629Z,11.96
2023-04-12T18:06:40.009Z,12.00
2023-04-12T18:09:44.772Z,12.01
2023-04-12T18:12:47.913Z,12.03
2023-04-12T18:15:50.952Z,12.02
2023-04-12T18:18:54.992Z,11.99
2023-04-12T18:22:00.236Z,11.96
2023-04-12T18:25:03.571Z,11.94
2023-04-12T18:28:07.220Z,11.88
2023-04-12T18:31:09.901Z,11.90
2023-04-12T18:34:12.801Z,11.90
2023-04-12T18:37:17.334Z,11.82
2023-04-12T18:40:21.638Z,11.85
2023-04-12T18:43:24.661Z,11.85
2023-04-12T18:46:29.000Z,11.80
2023-04-12T18:49:33.853Z,11.78
2023-04-12T18:52:37.640Z,11.80
2023-04-12T18:55:40.259Z,11.79
2023-04-12T18:58:54.415Z,11.78
2023-04-12T19:01:58.354Z,11.74
2023-04-12T19:05:02.906Z,11.74
2023-04-12T19:08:06.268Z,11.72
2023-04-12T19:11:09.230Z,11.74
2023-04-12T19:14:12.035Z,11.75
2023-04-12T19:17:15.167Z,11.73
2023-04-12T19:20:19.192Z,11.72
2023-04-12T19:23:22.489Z,11.71
2023-04-12T19:26:27.242Z,11.68
2023-04-12T19:29:30.368Z,11.68
2023-04-12T19:32:33.426Z,11.67
2023-04-12T19:35:36.424Z,11.65
2023-04-12T19:38:41.518Z,11.61
2023-04-12T19:41:44.924Z,11.56
2023-04-12T19:44:48.150Z,11.50
2023-04-12T19:47:51.278Z,11.41
2023-04-12T19:50:55.152Z,11.28
2023-04-12T19:53:59.781Z,11.24
2023-04-12T19:57:05.223Z,11.23
2023-04-12T20:00:12.796Z,11.20
2023-04-12T20:03:16.873Z,11.15
2023-04-12T20:06:19.852Z,11.09
2023-04-12T20:09:22.989Z,11.03
2023-04-12T20:12:26.095Z,10.95
2023-04-12T20:15:29.173Z,10.87
2023-04-12T20:18:32.671Z,10.82
2023-04-12T20:21:35.689Z,10.71
2023-04-12T20:24:38.402Z,10.61
2023-04-12T20:27:41.379Z,10.55
2023-04-12T20:30:48.060Z,10.52
2023-04-12T20:33:51.279Z,10.47
2023-04-12T20:36:55.438Z,10.33
2023-04-12T20:39:59.445Z,10.28
2023-04-12T20:43:02.212Z,10.18
2023-04-12T20:46:10.162Z,10.12
2023-04-12T20:49:14.615Z,10.19
2023-04-12T20:52:18.797Z,10.20
2023-04-12T20:55:25.240Z,10.23
2023-04-12T20:58:34.656Z,10.22
2023-04-12T21:01:37.785Z,10.28
2023-04-12T21:04:41.793Z,10.29
2023-04-12T21:07:46.634Z,10.31
2023-04-12T21:10:50.857Z,10.28
2023-04-12T21:13:53.280Z,10.28
2023-04-12T21:16:56.256Z,10.27
2023-04-12T21:19:58.975Z,10.27
2023-04-12T21:23:04.260Z,10.20
2023-04-12T21:26:08.417Z,10.14
2023-04-12T21:29:11.676Z,10.13
2023-04-12T21:32:14.420Z,10.10
2023-04-12T21:35:18.208Z,10.08
2023-04-12T21:38:24.138Z,10.07
2023-04-12T21:41:27.405Z,10.12
2023-04-12T21:44:30.876Z,10.02
2023-04-12T21:47:34.015Z,9.94
2023-04-12T21:50:37.627Z,9.99
2023-04-12T21:53:40.407Z,9.94
2023-04-12T21:56:42.864Z,9.94
2023-04-12T21:59:45.685Z,9.90
2023-04-12T22:02:48.798Z,9.90
2023-04-12T22:06:03.713Z,9.86
2023-04-12T22:09:07.195Z,9.83
2023-04-12T22:12:12.018Z,9.87
2023-04-12T22:15:16.611Z,9.82
2023-04-12T22:18:20.526Z,9.76
2023-04-12T22:21:23.252Z,9.68
2023-04-12T22:24:26.372Z,9.66
2023-04-12T22:27:29.834Z,9.66
2023-04-12T22:30:32.888Z,9.59
2023-04-12T22:33:36.952Z,9.53
2023-04-12T22:36:42.311Z,9.44
2023-04-12T22:39:47.057Z,9.38
2023-04-12T22:42:49.841Z,9.33
2023-04-12T22:45:53.989Z,9.25
2023-04-12T22:48:57.419Z,9.19
2023-04-12T22:51:59.855Z,9.18
2023-04-12T22:55:02.636Z,9.13
2023-04-12T22:58:06.146Z,9.03
2023-04-12T23:01:10.940Z,8.90
2023-04-12T23:04:15.771Z,8.76
2023-04-12T23:07:18.589Z,8.59
2023-04-12T23:10:22.436Z,8.49
2023-04-12T23:13:25.595Z,8.35
2023-04-12T23:16:29.743Z,8.22
2023-04-12T23:19:33.293Z,8.04
2023-04-12T23:22:55.840Z,7.91
2023-04-12T23:25:59.554Z,7.81
2023-04-12T23:29:03.754Z,7.58
2023-04-12T23:32:06.546Z,7.67
2023-04-12T23:35:09.288Z,7.57
2023-04-12T23:38:15.758Z,7.36
2023-04-12T23:41:18.482Z,7.21
2023-04-12T23:44:21.289Z,7.25
2023-04-12T23:47:24.112Z,7.16
2023-04-12T23:50:27.980Z,7.12
2023-04-12T23:53:30.774Z,7.02
2023-04-12T23:56:33.571Z,7.09
2023-04-12T23:59:36.728Z,7.12
